createdAt,value
2024-04-24T00:01:55.921Z,100394.75
2024-04-24T00:05:09.316Z,100398.69
2024-04-24T00:08:16.145Z,100397.06
2024-04-24T00:11:25.698Z,100400.19
2024-04-24T00:14:38.809Z,100391.28
2024-04-24T00:17:49.769Z,100392.34
2024-04-24T00:21:09.523Z,100380.13
2024-04-24T00:24:23.326Z,100386.94
2024-04-24T00:27:36.140Z,100388.59
2024-04-24T00:30:48.776Z,100377.00
2024-04-24T00:33:57.851Z,100370.19
2024-04-24T00:37:11.524Z,100361.13
2024-04-24T00:40:18.943Z,100350.41
2024-04-24T00:43:25.200Z,100348.25
2024-04-24T00:46:32.419Z,100351.13
2024-04-24T00:49:38.662Z,100343.72
2024-04-24T00:52:49.797Z,100342.19
2024-04-24T00:56:02.624Z,100336.84
2024-04-24T00:59:16.324Z,100329.66
2024-04-24T01:02:27.215Z,100334.59
2024-04-24T01:05:38.418Z,100326.88
2024-04-24T01:08:47.874Z,100317.97
2024-04-24T01:12:00.678Z,100322.78
2024-04-24T01:15:10.007Z,100326.25
2024-04-24T01:18:22.480Z,100317.00
2024-04-24T01:22:01.725Z,100316.09
2024-04-24T01:28:47.960Z,100310.75
2024-04-24T01:31:55.437Z,100279.72
2024-04-24T01:35:17.180Z,100307.66
2024-04-24T01:38:24.992Z,100303.00
2024-04-24T01:41:36.082Z,100307.66
2024-04-24T01:44:45.595Z,100301.44
2024-04-24T01:47:58.760Z,100268.94
2024-04-24T01:51:10.884Z,100285.19
2024-04-24T01:54:21.799Z,100277.19
2024-04-24T01:57:33.469Z,100286.94
2024-04-24T02:00:42.544Z,100281.72
2024-04-24T02:04:00.534Z,100277.19
2024-04-24T02:07:10.423Z,100267.88
2024-04-24T02:10:18.473Z,100261.81
2024-04-24T02:13:27.656Z,100257.84
2024-04-24T02:16:38.120Z,100255.13
2024-04-24T02:19:44.366Z,100249.44
2024-04-24T02:22:59.842Z,100252.06
2024-04-24T02:26:16.264Z,100246.13
2024-04-24T02:29:34.529Z,100246.94
2024-04-24T02:32:51.838Z,100233.84
2024-04-24T02:36:01.284Z,100235.44
2024-04-24T02:39:22.862Z,100229.19
2024-04-24T02:42:32.214Z,100224.69
2024-04-24T02:45:43.447Z,100225.13
2024-04-24T02:48:52.198Z,100216.19
2024-04-24T02:52:02.589Z,100211.91
2024-04-24T02:55:10.432Z,100204.53
2024-04-24T02:58:19.567Z,100211.59
2024-04-24T03:01:31.196Z,100213.47
2024-04-24T03:04:37.710Z,100199.81
2024-04-24T03:07:45.043Z,100209.44
2024-04-24T03:10:56.729Z,100199.50
2024-04-24T03:14:04.017Z,100188.41
2024-04-24T03:17:20.005Z,100188.03
2024-04-24T03:20:26.802Z,100177.38
2024-04-24T03:23:39.764Z,100173.59
2024-04-24T03:26:48.668Z,100160.78
2024-04-24T03:29:54.882Z,100160.72
2024-04-24T03:33:03.362Z,100159.00
2024-04-24T03:36:15.780Z,100156.06
2024-04-24T03:39:27.039Z,100148.56
2024-04-24T03:42:38.110Z,100144.56
2024-04-24T03:45:47.482Z,100132.69
2024-04-24T03:49:00.453Z,100129.13
2024-04-24T03:52:09.747Z,100126.72
2024-04-24T03:55:20.132Z,100136.38
2024-04-24T04:01:54.336Z,100118.78
2024-04-24T04:05:01.676Z,100109.88
2024-04-24T04:08:09.423Z,100116.59
2024-04-24T04:11:24.574Z,100118.66
2024-04-24T04:14:36.652Z,100108.44
2024-04-24T04:17:46.522Z,100113.34
2024-04-24T04:20:55.140Z,100106.16
2024-04-24T04:24:05.430Z,100109.00
2024-04-24T04:27:16.611Z,100098.88
2024-04-24T04:30:28.400Z,100093.31
2024-04-24T04:33:38.134Z,100094.94
2024-04-24T04:36:47.584Z,100095.56
2024-04-24T04:39:57.577Z,100103.22
2024-04-24T04:43:09.784Z,100091.28
2024-04-24T04:46:18.369Z,100094.84
2024-04-24T04:49:24.689Z,100089.72
2024-04-24T04:52:34.506Z,100087.53
2024-04-24T04:55:46.533Z,100082.16
2024-04-24T04:58:59.755Z,100081.88
2024-04-24T05:02:11.510Z,100070.44
2024-04-24T05:05:25.790Z,100088.00
2024-04-24T05:08:35.812Z,100075.50
2024-04-24T05:11:47.805Z,100075.38
2024-04-24T05:15:00.578Z,100068.72
2024-04-24T05:21:54.243Z,100055.34
2024-04-24T05:25:04.230Z,100058.69
2024-04-24T05:28:38.301Z,100054.81
2024-04-24T05:31:49.595Z,100047.13
2024-04-24T05:35:01.627Z,100048.06
2024-04-24T05:38:17.042Z,100040.66
2024-04-24T05:41:30.040Z,100038.72
2024-04-24T05:44:40.242Z,100036.22
2024-04-24T05:47:53.436Z,100039.34
2024-04-24T05:51:08.477Z,100031.94
2024-04-24T05:54:19.328Z,99999.00
2024-04-24T05:57:29.290Z,100016.91
2024-04-24T06:00:39.780Z,100019.31
2024-04-24T06:03:49.143Z,100019.00
2024-04-24T06:06:58.500Z,100016.75
2024-04-24T06:10:12.668Z,100008.75
2024-04-24T06:13:25.623Z,100009.75
2024-04-24T06:16:33.748Z,100016.31
2024-04-24T06:19:49.023Z,100019.84
2024-04-24T06:23:07.145Z,100013.97
2024-04-24T06:26:22.343Z,100018.38
2024-04-24T06:29:30.786Z,100017.97
2024-04-24T06:32:39.309Z,100023.41
2024-04-24T06:35:50.118Z,100010.41
2024-04-24T06:38:56.736Z,100011.19
2024-04-24T06:42:03.015Z,100012.91
2024-04-24T06:45:12.290Z,100012.59
2024-04-24T06:48:21.574Z,100018.50
2024-04-24T06:51:36.407Z,99997.94
2024-04-24T06:54:49.057Z,100001.78
2024-04-24T06:57:58.446Z,99999.56
2024-04-24T07:01:12.274Z,99989.34
2024-04-24T07:04:25.656Z,99989.34
2024-04-24T07:07:33.377Z,99993.88
2024-04-24T07:10:41.420Z,99990.75
2024-04-24T07:13:49.648Z,99980.94
2024-04-24T07:16:57.813Z,99986.72
2024-04-24T07:20:05.088Z,99976.41
2024-04-24T07:23:18.527Z,99966.53
2024-04-24T07:26:28.728Z,99960.78
2024-04-24T07:29:42.463Z,99956.84
2024-04-24T07:32:53.539Z,99954.09
2024-04-24T07:36:07.800Z,99928.88
2024-04-24T07:39:21.401Z,99944.94
2024-04-24T07:42:30.402Z,99938.69
2024-04-24T07:45:38.136Z,99934.88
2024-04-24T07:48:48.727Z,99934.28
2024-04-24T07:51:55.070Z,99938.06
2024-04-24T07:55:01.356Z,99930.06
2024-04-24T07:58:07.627Z,99926.94
2024-04-24T08:01:15.552Z,99921.03
2024-04-24T08:04:24.861Z,99916.72
2024-04-24T08:07:38.344Z,99914.56
2024-04-24T08:10:46.076Z,99913.50
2024-04-24T08:13:56.131Z,99907.53
2024-04-24T08:17:06.070Z,99910.31
2024-04-24T08:20:14.673Z,99905.53
2024-04-24T08:23:26.978Z,99902.56
2024-04-24T08:26:38.682Z,99894.09
2024-04-24T08:29:53.456Z,99897.22
2024-04-24T08:33:01.723Z,99892.31
2024-04-24T08:36:11.277Z,99891.59
2024-04-24T08:39:20.421Z,99886.72
2024-04-24T08:42:27.631Z,99877.66
2024-04-24T08:45:34.232Z,99875.00
2024-04-24T08:48:56.634Z,99871.59
2024-04-24T08:52:07.083Z,99860.00
2024-04-24T08:55:17.826Z,99858.91
2024-04-24T08:58:34.438Z,99860.56
2024-04-24T09:01:51.779Z,99858.00
2024-04-24T09:05:05.342Z,99854.03
2024-04-24T09:08:12.473Z,99845.75
2024-04-24T09:11:20.061Z,99853.69
2024-04-24T09:14:30.090Z,99843.81
2024-04-24T09:17:41.265Z,99848.44
2024-04-24T09:20:53.529Z,99833.53
2024-04-24T09:24:00.210Z,99834.50
2024-04-24T09:27:12.124Z,99831.00
2024-04-24T09:30:20.171Z,99825.13
2024-04-24T09:33:30.128Z,99819.44
2024-04-24T09:36:44.840Z,99814.25
2024-04-24T09:39:55.083Z,99804.31
2024-04-24T09:43:10.080Z,99805.06
2024-04-24T09:46:24.186Z,99810.63
2024-04-24T09:52:40.719Z,99801.09
2024-04-24T09:55:56.536Z,99795.66
2024-04-24T09:59:06.704Z,99799.22
2024-04-24T10:02:21.557Z,99786.53
2024-04-24T10:05:39.686Z,99787.53
2024-04-24T10:09:07.564Z,99780.53
2024-04-24T10:12:47.298Z,99770.03
2024-04-24T10:16:16.497Z,99766.53
2024-04-24T10:19:28.652Z,99760.97
2024-04-24T10:22:43.601Z,99757.88
2024-04-24T10:25:53.294Z,99750.00
2024-04-24T10:29:01.359Z,99744.22
2024-04-24T10:32:12.056Z,99746.78
2024-04-24T10:35:29.003Z,99742.81
2024-04-24T10:38:41.316Z,99736.72
2024-04-24T10:41:52.303Z,99728.25
2024-04-24T10:45:09.557Z,99723.09
2024-04-24T10:48:17.321Z,99732.63
2024-04-24T10:51:35.336Z,99724.53
2024-04-24T10:54:50.857Z,99716.56
2024-04-24T10:57:59.294Z,99717.03
2024-04-24T11:01:13.052Z,99716.97
2024-04-24T11:04:22.493Z,99702.75
2024-04-24T11:07:38.326Z,99716.28
2024-04-24T11:10:59.373Z,99710.03
2024-04-24T11:14:15.428Z,99703.88
2024-04-24T11:17:29.700Z,99699.91
2024-04-24T11:20:41.716Z,99698.16
2024-04-24T11:23:56.830Z,99704.28
2024-04-24T11:27:11.363Z,99693.06
2024-04-24T11:30:25.303Z,99702.38
2024-04-24T11:33:37.704Z,99703.28
2024-04-24T11:36:54.847Z,99679.81
2024-04-24T11:40:06.492Z,99690.91
2024-04-24T11:43:16.115Z,99679.28
2024-04-24T11:46:28.385Z,99679.44
2024-04-24T11:49:37.141Z,99682.84
2024-04-24T11:52:50.901Z,99668.13
2024-04-24T11:59:19.086Z,99658.06
2024-04-24T12:02:29.768Z,99660.03
2024-04-24T12:05:40.719Z,99674.47
2024-04-24T12:08:53.316Z,99666.75
2024-04-24T12:12:03.137Z,99661.19
2024-04-24T12:15:16.521Z,99653.41
2024-04-24T12:18:25.270Z,99663.19
2024-04-24T12:21:32.887Z,99657.78
2024-04-24T12:24:42.431Z,99668.00
2024-04-24T12:27:49.772Z,99651.41
2024-04-24T12:30:59.999Z,99647.88
2024-04-24T12:34:10.763Z,99641.69
2024-04-24T12:37:25.309Z,99640.44
2024-04-24T12:40:35.364Z,99634.47
2024-04-24T12:43:44.145Z,99632.88
2024-04-24T12:46:52.865Z,99634.44
2024-04-24T12:50:03.329Z,99627.06
2024-04-24T12:53:11.364Z,99626.81
2024-04-24T12:56:21.494Z,99618.09
2024-04-24T12:59:35.220Z,99613.16
2024-04-24T13:02:43.960Z,99617.81
2024-04-24T13:05:58.291Z,99610.31
2024-04-24T13:09:07.104Z,99597.00
2024-04-24T13:12:23.026Z,99588.31
2024-04-24T13:15:30.931Z,99594.06
2024-04-24T13:18:41.730Z,99581.44
2024-04-24T13:21:51.353Z,99589.13
2024-04-24T13:24:59.177Z,99589.22
2024-04-24T13:28:08.058Z,99591.44
2024-04-24T13:31:17.822Z,99586.81
2024-04-24T13:34:27.915Z,99586.09
2024-04-24T13:37:37.556Z,99579.63
2024-04-24T13:40:47.453Z,99587.44
2024-04-24T13:43:59.879Z,99577.59
2024-04-24T13:47:14.423Z,99574.91
2024-04-24T13:50:24.041Z,99573.09
2024-04-24T13:53:31.952Z,99575.34
2024-04-24T13:56:39.186Z,99582.66
2024-04-24T13:59:51.072Z,99576.56
2024-04-24T14:03:03.063Z,99574.06
2024-04-24T14:06:09.974Z,99579.44
2024-04-24T14:09:24.596Z,99564.00
2024-04-24T14:12:35.693Z,99563.00
2024-04-24T14:15:45.227Z,99548.13
2024-04-24T14:18:55.091Z,99554.16
2024-04-24T14:22:06.539Z,99536.50
2024-04-24T14:25:15.069Z,99559.44
2024-04-24T14:28:26.353Z,99557.31
2024-04-24T14:31:34.401Z,99558.28
2024-04-24T14:34:53.108Z,99546.00
2024-04-24T14:38:05.995Z,99553.47
2024-04-24T14:41:14.026Z,99545.31
2024-04-24T14:44:21.073Z,99544.47
2024-04-24T14:47:32.770Z,99543.31
2024-04-24T14:50:42.967Z,99543.28
2024-04-24T14:53:56.435Z,99539.75
2024-04-24T14:57:05.968Z,99536.44
2024-04-24T15:00:15.476Z,99524.66
2024-04-24T15:03:32.373Z,99539.34
2024-04-24T15:06:40.567Z,99535.63
2024-04-24T15:09:49.056Z,99541.44
2024-04-24T15:12:59.395Z,99534.25
2024-04-24T15:16:12.421Z,99530.25
2024-04-24T15:19:21.221Z,99527.78
2024-04-24T15:22:32.987Z,99528.31
2024-04-24T15:25:44.031Z,99522.88
2024-04-24T15:28:52.514Z,99530.59
2024-04-24T15:32:04.982Z,99520.69
2024-04-24T15:35:18.132Z,99520.31
2024-04-24T15:38:29.481Z,99519.69
2024-04-24T15:41:47.637Z,99517.84
2024-04-24T15:44:55.905Z,99520.28
2024-04-24T15:48:07.769Z,99515.13
2024-04-24T15:51:17.652Z,99512.59
2024-04-24T15:54:28.366Z,99510.28
2024-04-24T15:57:38.887Z,99513.59
2024-04-24T16:00:50.615Z,99513.13
2024-04-24T16:04:02.573Z,99515.66
2024-04-24T16:07:15.778Z,99519.66
2024-04-24T16:10:23.198Z,99516.13
2024-04-24T16:13:29.970Z,99524.91
2024-04-24T16:16:40.689Z,99519.38
2024-04-24T16:19:54.824Z,99521.16
2024-04-24T16:23:02.295Z,99521.44
2024-04-24T16:26:10.635Z,99502.25
2024-04-24T16:29:20.219Z,99514.69
2024-04-24T16:32:31.779Z,99509.50
2024-04-24T16:35:43.608Z,99515.50
2024-04-24T16:38:53.988Z,99505.66
2024-04-24T16:42:01.892Z,99496.50
2024-04-24T16:45:08.265Z,99495.22
2024-04-24T16:48:20.760Z,99494.94
2024-04-24T16:51:30.553Z,99488.00
2024-04-24T16:54:44.017Z,99491.19
2024-04-24T16:58:07.651Z,99492.06
2024-04-24T17:01:18.145Z,99489.97
2024-04-24T17:04:29.299Z,99498.97
2024-04-24T17:07:37.675Z,99494.72
2024-04-24T17:10:46.170Z,99485.50
2024-04-24T17:13:56.631Z,99491.22
2024-04-24T17:17:12.618Z,99489.91
2024-04-24T17:20:22.498Z,99487.75
2024-04-24T17:23:33.572Z,99492.50
2024-04-24T17:26:41.845Z,99489.06
2024-04-24T17:29:48.727Z,99494.78
2024-04-24T17:32:59.576Z,99494.50
2024-04-24T17:36:10.108Z,99506.50
2024-04-24T17:39:22.719Z,99509.22
2024-04-24T17:42:29.669Z,99499.19
2024-04-24T17:45:39.611Z,99508.97
2024-04-24T17:48:47.278Z,99513.28
2024-04-24T17:51:53.705Z,99510.84
2024-04-24T17:55:02.080Z,99511.06
2024-04-24T17:58:09.187Z,99503.47
2024-04-24T18:01:22.373Z,99500.50
2024-04-24T18:04:31.484Z,99513.72
2024-04-24T18:07:40.432Z,99513.97
2024-04-24T18:10:50.386Z,99521.75
2024-04-24T18:13:57.154Z,99527.66
2024-04-24T18:17:04.333Z,99536.03
2024-04-24T18:20:19.142Z,99551.13
2024-04-24T18:23:30.659Z,99540.28
2024-04-24T18:26:42.630Z,99552.13
2024-04-24T18:29:49.907Z,99542.63
2024-04-24T18:32:57.800Z,99544.16
2024-04-24T18:36:04.610Z,99538.66
2024-04-24T18:39:20.750Z,99537.28
2024-04-24T18:42:30.319Z,99544.44
2024-04-24T18:45:36.773Z,99539.53
2024-04-24T18:48:43.293Z,99545.50
2024-04-24T18:51:51.016Z,99546.59
2024-04-24T18:54:58.179Z,99547.34
2024-04-24T18:58:04.452Z,99553.22
2024-04-24T19:01:11.022Z,99551.00
2024-04-24T19:04:18.308Z,99558.53
2024-04-24T19:07:27.831Z,99559.56
2024-04-24T19:10:39.493Z,99560.31
2024-04-24T19:13:48.976Z,99554.34
2024-04-24T19:16:57.644Z,99558.84
2024-04-24T19:20:04.798Z,99561.44
2024-04-24T19:23:19.787Z,99566.72
2024-04-24T19:26:26.733Z,99560.06
2024-04-24T19:29:38.470Z,99568.00
2024-04-24T19:32:45.281Z,99560.47
2024-04-24T19:35:56.926Z,99566.22
2024-04-24T19:39:07.349Z,99567.19
2024-04-24T19:42:14.423Z,99564.97
2024-04-24T19:45:24.141Z,99559.22
2024-04-24T19:48:34.634Z,99563.13
2024-04-24T19:51:48.036Z,99571.16
2024-04-24T19:55:00.169Z,99560.81
2024-04-24T19:58:09.653Z,99562.28
2024-04-24T20:01:19.486Z,99558.53
2024-04-24T20:04:30.928Z,99558.28
2024-04-24T20:07:41.705Z,99552.09
2024-04-24T20:10:58.223Z,99545.69
2024-04-24T20:14:09.857Z,99556.22
2024-04-24T20:17:24.134Z,99556.53
2024-04-24T20:20:33.785Z,99565.34
2024-04-24T20:23:46.074Z,99558.84
2024-04-24T20:26:52.325Z,99559.78
2024-04-24T20:30:02.441Z,99551.53
2024-04-24T20:33:14.930Z,99547.81
2024-04-24T20:36:27.623Z,99551.22
2024-04-24T20:39:38.140Z,99558.47
2024-04-24T20:42:50.832Z,99559.69
2024-04-24T20:45:58.101Z,99547.41
2024-04-24T20:49:04.312Z,99551.72
2024-04-24T20:52:14.458Z,99554.41
2024-04-24T20:55:22.726Z,99554.41
2024-04-24T20:58:30.368Z,99553.50
2024-04-24T21:01:38.541Z,99550.94
2024-04-24T21:04:47.255Z,99548.88
2024-04-24T21:07:56.169Z,99548.88
2024-04-24T21:11:07.836Z,99556.56
2024-04-24T21:14:20.618Z,99559.03
2024-04-24T21:17:26.937Z,99547.63
2024-04-24T21:20:35.754Z,99552.16
2024-04-24T21:23:45.604Z,99552.50
2024-04-24T21:26:57.765Z,99553.09
2024-04-24T21:30:06.483Z,99549.13
2024-04-24T21:33:13.681Z,99540.59
2024-04-24T21:36:23.591Z,99546.22
2024-04-24T21:39:31.627Z,99545.50
2024-04-24T21:42:51.518Z,99544.69
2024-04-24T21:46:03.943Z,99549.59
2024-04-24T21:49:15.631Z,99549.97
2024-04-24T21:52:34.669Z,99551.69
2024-04-24T21:55:43.593Z,99552.97
2024-04-24T21:58:49.993Z,99555.66
2024-04-24T22:02:01.746Z,99543.06
2024-04-24T22:05:12.431Z,99539.81
2024-04-24T22:08:26.601Z,99539.44
2024-04-24T22:11:35.065Z,99540.94
2024-04-24T22:14:41.526Z,99531.88
2024-04-24T22:17:56.669Z,99537.97
2024-04-24T22:21:09.508Z,99528.63
2024-04-24T22:24:23.049Z,99526.50
2024-04-24T22:27:29.341Z,99520.66
2024-04-24T22:30:38.268Z,99536.16
2024-04-24T22:33:57.209Z,99528.91
2024-04-24T22:37:10.238Z,99533.47
2024-04-24T22:40:22.652Z,99528.44
2024-04-24T22:43:32.816Z,99533.69
2024-04-24T22:46:40.845Z,99529.59
2024-04-24T22:49:51.683Z,99535.56
2024-04-24T22:53:01.044Z,99533.94
2024-04-24T22:56:15.959Z,99537.44
2024-04-24T22:59:29.191Z,99530.31
2024-04-24T23:02:41.490Z,99534.06
2024-04-24T23:05:52.635Z,99528.00
2024-04-24T23:09:21.195Z,99532.31
2024-04-24T23:12:31.525Z,99533.81
2024-04-24T23:15:39.391Z,99529.25
2024-04-24T23:18:48.743Z,99522.72
2024-04-24T23:21:58.634Z,99529.59
2024-04-24T23:25:08.356Z,99522.34
2024-04-24T23:28:16.827Z,99521.06
2024-04-24T23:31:30.225Z,99524.31
2024-04-24T23:34:38.259Z,99520.38
2024-04-24T23:37:46.124Z,99522.34
2024-04-24T23:40:56.755Z,99519.16
2024-04-24T23:44:05.361Z,99507.69
2024-04-24T23:47:15.751Z,99517.00
2024-04-24T23:50:26.453Z,99500.56
2024-04-24T23:53:37.473Z,99512.44
2024-04-24T23:56:55.408Z,99512.44
